sensor_id;sensor_type;location;lat;lon;timestamp;P1;durP1;ratioP1;P2;durP2;ratioP2
20397;SDS011;10358;49.590;11.030;2024-02-21T00:01:27;13.67;;;4.30;;
20397;SDS011;10358;49.590;11.030;2024-02-21T00:03:52;15.20;;;4.30;;
20397;SDS011;10358;49.590;11.030;2024-02-21T00:06:18;17.97;;;4.80;;
20397;SDS011;10358;49.590;11.030;2024-02-21T00:08:43;15.50;;;4.60;;
20397;SDS011;10358;49.590;11.030;2024-02-21T00:11:09;17.77;;;4.57;;
20397;SDS011;10358;49.590;11.030;2024-02-21T00:13:34;17.47;;;4.07;;
20397;SDS011;10358;49.590;11.030;2024-02-21T00:16:00;15.93;;;4.40;;
20397;SDS011;10358;49.590;11.030;2024-02-21T00:18:26;16.60;;;4.50;;
20397;SDS011;10358;49.590;11.030;2024-02-21T00:20:52;11.63;;;4.37;;
20397;SDS011;10358;49.590;11.030;2024-02-21T00:23:17;21.50;;;4.47;;
20397;SDS011;10358;49.590;11.030;2024-02-21T00:25:43;15.77;;;4.50;;
20397;SDS011;10358;49.590;11.030;2024-02-21T00:28:08;23.03;;;4.93;;
20397;SDS011;10358;49.590;11.030;2024-02-21T00:30:34;14.67;;;4.37;;
20397;SDS011;10358;49.590;11.030;2024-02-21T00:32:59;23.30;;;4.97;;
20397;SDS011;10358;49.590;11.030;2024-02-21T00:35:25;16.93;;;4.97;;
20397;SDS011;10358;49.590;11.030;2024-02-21T00:37:51;19.70;;;4.40;;
20397;SDS011;10358;49.590;11.030;2024-02-21T00:40:18;19.43;;;5.00;;
20397;SDS011;10358;49.590;11.030;2024-02-21T00:42:45;15.50;;;4.63;;
20397;SDS011;10358;49.590;11.030;2024-02-21T00:45:11;16.60;;;4.50;;
20397;SDS011;10358;49.590;11.030;2024-02-21T00:47:38;12.17;;;4.40;;
20397;SDS011;10358;49.590;11.030;2024-02-21T00:50:04;18.23;;;4.33;;
20397;SDS011;10358;49.590;11.030;2024-02-21T00:52:30;17.47;;;4.30;;
20397;SDS011;10358;49.590;11.030;2024-02-21T00:54:55;20.53;;;4.50;;
20397;SDS011;10358;49.590;11.030;2024-02-21T00:57:21;17.90;;;4.63;;
20397;SDS011;10358;49.590;11.030;2024-02-21T00:59:48;19.90;;;4.67;;
20397;SDS011;10358;49.590;11.030;2024-02-21T01:02:13;20.23;;;5.17;;
20397;SDS011;10358;49.590;11.030;2024-02-21T01:04:39;16.17;;;4.53;;
20397;SDS011;10358;49.590;11.030;2024-02-21T01:07:04;22.90;;;4.73;;
20397;SDS011;10358;49.590;11.030;2024-02-21T01:09:30;16.90;;;4.90;;
20397;SDS011;10358;49.590;11.030;2024-02-21T01:11:56;10.97;;;4.57;;
20397;SDS011;10358;49.590;11.030;2024-02-21T01:14:21;19.70;;;4.80;;
20397;SDS011;10358;49.590;11.030;2024-02-21T01:16:47;12.80;;;4.23;;
20397;SDS011;10358;49.590;11.030;2024-02-21T01:19:13;15.43;;;4.87;;
20397;SDS011;10358;49.590;11.030;2024-02-21T01:21:38;17.77;;;4.70;;
20397;SDS011;10358;49.590;11.030;2024-02-21T01:24:04;15.33;;;4.33;;
20397;SDS011;10358;49.590;11.030;2024-02-21T01:26:29;21.80;;;4.67;;
20397;SDS011;10358;49.590;11.030;2024-02-21T01:28:55;17.30;;;4.60;;
20397;SDS011;10358;49.590;11.030;2024-02-21T01:31:20;22.03;;;4.77;;
20397;SDS011;10358;49.590;11.030;2024-02-21T01:33:46;12.53;;;4.50;;
20397;SDS011;10358;49.590;11.030;2024-02-21T01:36:11;17.37;;;4.90;;
20397;SDS011;10358;49.590;11.030;2024-02-21T01:38:37;17.30;;;5.00;;
20397;SDS011;10358;49.590;11.030;2024-02-21T01:41:03;15.17;;;4.63;;
20397;SDS011;10358;49.590;11.030;2024-02-21T01:43:28;15.23;;;4.77;;
20397;SDS011;10358;49.590;11.030;2024-02-21T01:45:57;17.93;;;5.20;;
20397;SDS011;10358;49.590;11.030;2024-02-21T01:48:24;17.70;;;4.37;;
20397;SDS011;10358;49.590;11.030;2024-02-21T01:50:50;16.97;;;3.90;;
20397;SDS011;10358;49.590;11.030;2024-02-21T01:53:19;16.23;;;4.60;;
20397;SDS011;10358;49.590;11.030;2024-02-21T01:55:51;19.83;;;4.60;;
20397;SDS011;10358;49.590;11.030;2024-02-21T01:58:17;19.23;;;4.30;;
20397;SDS011;10358;49.590;11.030;2024-02-21T02:00:46;21.20;;;4.43;;
20397;SDS011;10358;49.590;11.030;2024-02-21T02:03:14;15.33;;;4.57;;
20397;SDS011;10358;49.590;11.030;2024-02-21T02:05:43;16.93;;;4.97;;
20397;SDS011;10358;49.590;11.030;2024-02-21T02:08:11;15.30;;;4.47;;
20397;SDS011;10358;49.590;11.030;2024-02-21T02:10:38;13.30;;;4.00;;
20397;SDS011;10358;49.590;11.030;2024-02-21T02:13:04;13.10;;;4.23;;
20397;SDS011;10358;49.590;11.030;2024-02-21T02:15:43;23.33;;;4.57;;
20397;SDS011;10358;49.590;11.030;2024-02-21T02:18:10;20.03;;;4.37;;
20397;SDS011;10358;49.590;11.030;2024-02-21T02:20:37;14.63;;;4.53;;
20397;SDS011;10358;49.590;11.030;2024-02-21T02:23:05;18.00;;;4.37;;
20397;SDS011;10358;49.590;11.030;2024-02-21T02:25:34;15.37;;;4.00;;
20397;SDS011;10358;49.590;11.030;2024-02-21T02:28:00;14.00;;;4.00;;
20397;SDS011;10358;49.590;11.030;2024-02-21T02:30:26;13.37;;;3.83;;
20397;SDS011;10358;49.590;11.030;2024-02-21T02:32:52;18.50;;;4.23;;
20397;SDS011;10358;49.590;11.030;2024-02-21T02:35:18;24.40;;;4.17;;
20397;SDS011;10358;49.590;11.030;2024-02-21T02:37:47;14.07;;;4.13;;
20397;SDS011;10358;49.590;11.030;2024-02-21T02:40:14;17.57;;;3.90;;
20397;SDS011;10358;49.590;11.030;2024-02-21T02:42:40;15.10;;;3.90;;
20397;SDS011;10358;49.590;11.030;2024-02-21T02:45:05;16.23;;;4.23;;
20397;SDS011;10358;49.590;11.030;2024-02-21T02:47:31;18.67;;;4.50;;
20397;SDS011;10358;49.590;11.030;2024-02-21T02:49:59;15.53;;;4.40;;
20397;SDS011;10358;49.590;11.030;2024-02-21T02:52:25;15.10;;;3.93;;
20397;SDS011;10358;49.590;11.030;2024-02-21T02:54:52;18.83;;;4.23;;
20397;SDS011;10358;49.590;11.030;2024-02-21T02:57:20;16.40;;;4.60;;
20397;SDS011;10358;49.590;11.030;2024-02-21T02:59:48;14.27;;;4.20;;
20397;SDS011;10358;49.590;11.030;2024-02-21T03:02:15;12.80;;;4.20;;
20397;SDS011;10358;49.590;11.030;2024-02-21T03:04:40;17.40;;;5.23;;
20397;SDS011;10358;49.590;11.030;2024-02-21T03:07:06;17.50;;;4.47;;
20397;SDS011;10358;49.590;11.030;2024-02-21T03:09:32;14.80;;;4.70;;
20397;SDS011;10358;49.590;11.030;2024-02-21T03:11:57;17.43;;;4.53;;
20397;SDS011;10358;49.590;11.030;2024-02-21T03:14:27;16.60;;;4.30;;
20397;SDS011;10358;49.590;11.030;2024-02-21T03:16:53;11.57;;;4.27;;
20397;SDS011;10358;49.590;11.030;2024-02-21T03:19:19;20.53;;;4.70;;
20397;SDS011;10358;49.590;11.030;2024-02-21T03:21:45;20.93;;;4.40;;
20397;SDS011;10358;49.590;11.030;2024-02-21T03:24:10;16.30;;;4.53;;
20397;SDS011;10358;49.590;11.030;2024-02-21T03:26:36;20.53;;;4.47;;
20397;SDS011;10358;49.590;11.030;2024-02-21T03:29:03;16.03;;;4.30;;
20397;SDS011;10358;49.590;11.030;2024-02-21T03:31:29;17.63;;;4.40;;
20397;SDS011;10358;49.590;11.030;2024-02-21T03:33:54;19.07;;;5.23;;
20397;SDS011;10358;49.590;11.030;2024-02-21T03:36:20;22.93;;;4.57;;
20397;SDS011;10358;49.590;11.030;2024-02-21T03:38:46;23.00;;;5.27;;
20397;SDS011;10358;49.590;11.030;2024-02-21T03:41:11;17.77;;;4.87;;
20397;SDS011;10358;49.590;11.030;2024-02-21T03:43:37;18.53;;;5.00;;
20397;SDS011;10358;49.590;11.030;2024-02-21T03:46:04;18.93;;;4.70;;
20397;SDS011;10358;49.590;11.030;2024-02-21T03:48:31;16.20;;;4.47;;
20397;SDS011;10358;49.590;11.030;2024-02-21T03:50:57;12.73;;;4.37;;
20397;SDS011;10358;49.590;11.030;2024-02-21T03:53:23;16.63;;;5.00;;
20397;SDS011;10358;49.590;11.030;2024-02-21T03:55:48;19.43;;;5.20;;
20397;SDS011;10358;49.590;11.030;2024-02-21T03:58:14;20.70;;;5.33;;
20397;SDS011;10358;49.590;11.030;2024-02-21T04:00:39;19.27;;;5.63;;
20397;SDS011;10358;49.590;11.030;2024-02-21T04:03:06;21.03;;;5.97;;
20397;SDS011;10358;49.590;11.030;2024-02-21T04:05:32;18.93;;;4.47;;
20397;SDS011;10358;49.590;11.030;2024-02-21T04:07:58;18.87;;;4.40;;
20397;SDS011;10358;49.590;11.030;2024-02-21T04:10:23;18.50;;;4.40;;
20397;SDS011;10358;49.590;11.030;2024-02-21T04:12:49;12.93;;;4.47;;
20397;SDS011;10358;49.590;11.030;2024-02-21T04:15:16;14.07;;;3.93;;
20397;SDS011;10358;49.590;11.030;2024-02-21T04:17:42;17.10;;;4.20;;
20397;SDS011;10358;49.590;11.030;2024-02-21T04:20:13;16.63;;;4.53;;
20397;SDS011;10358;49.590;11.030;2024-02-21T04:22:42;19.33;;;4.80;;
20397;SDS011;10358;49.590;11.030;2024-02-21T04:25:09;20.90;;;4.57;;
20397;SDS011;10358;49.590;11.030;2024-02-21T04:27:35;20.80;;;4.23;;
20397;SDS011;10358;49.590;11.030;2024-02-21T04:30:02;15.47;;;4.13;;
20397;SDS011;10358;49.590;11.030;2024-02-21T04:32:28;15.90;;;4.30;;
20397;SDS011;10358;49.590;11.030;2024-02-21T04:34:53;15.30;;;4.60;;
20397;SDS011;10358;49.590;11.030;2024-02-21T04:37:19;16.60;;;4.53;;
20397;SDS011;10358;49.590;11.030;2024-02-21T04:39:45;21.13;;;5.30;;
20397;SDS011;10358;49.590;11.030;2024-02-21T04:42:11;19.47;;;6.20;;
20397;SDS011;10358;49.590;11.030;2024-02-21T04:44:37;18.30;;;5.17;;
20397;SDS011;10358;49.590;11.030;2024-02-21T04:47:03;17.07;;;4.10;;
20397;SDS011;10358;49.590;11.030;2024-02-21T04:49:29;17.33;;;4.47;;
20397;SDS011;10358;49.590;11.030;2024-02-21T04:51:54;17.67;;;5.40;;
20397;SDS011;10358;49.590;11.030;2024-02-21T04:54:20;13.83;;;4.10;;
20397;SDS011;10358;49.590;11.030;2024-02-21T04:56:46;13.93;;;4.13;;
20397;SDS011;10358;49.590;11.030;2024-02-21T04:59:11;13.37;;;4.83;;
20397;SDS011;10358;49.590;11.030;2024-02-21T05:01:37;22.93;;;5.70;;
20397;SDS011;10358;49.590;11.030;2024-02-21T05:04:02;19.53;;;5.03;;
20397;SDS011;10358;49.590;11.030;2024-02-21T05:06:28;22.03;;;4.90;;
20397;SDS011;10358;49.590;11.030;2024-02-21T05:08:54;20.23;;;4.63;;
20397;SDS011;10358;49.590;11.030;2024-02-21T05:11:20;22.23;;;4.70;;
20397;SDS011;10358;49.590;11.030;2024-02-21T05:13:46;16.27;;;4.43;;
20397;SDS011;10358;49.590;11.030;2024-02-21T05:16:12;17.83;;;4.93;;
20397;SDS011;10358;49.590;11.030;2024-02-21T05:18:37;11.43;;;4.63;;
20397;SDS011;10358;49.590;11.030;2024-02-21T05:21:05;17.93;;;5.23;;
20397;SDS011;10358;49.590;11.030;2024-02-21T05:23:30;18.23;;;5.40;;
20397;SDS011;10358;49.590;11.030;2024-02-21T05:25:56;20.47;;;5.50;;
20397;SDS011;10358;49.590;11.030;2024-02-21T05:28:21;17.13;;;5.20;;
20397;SDS011;10358;49.590;11.030;2024-02-21T05:30:47;17.37;;;5.67;;
20397;SDS011;10358;49.590;11.030;2024-02-21T05:33:12;20.00;;;5.33;;
20397;SDS011;10358;49.590;11.030;2024-02-21T05:35:45;14.73;;;5.20;;
20397;SDS011;10358;49.590;11.030;2024-02-21T05:38:11;18.90;;;4.83;;
20397;SDS011;10358;49.590;11.030;2024-02-21T05:40:37;17.67;;;5.20;;
20397;SDS011;10358;49.590;11.030;2024-02-21T05:43:02;18.57;;;5.00;;
20397;SDS011;10358;49.590;11.030;2024-02-21T05:45:28;24.33;;;6.07;;
20397;SDS011;10358;49.590;11.030;2024-02-21T05:47:54;18.40;;;6.73;;
20397;SDS011;10358;49.590;11.030;2024-02-21T05:50:19;13.47;;;5.13;;
20397;SDS011;10358;49.590;11.030;2024-02-21T05:52:46;24.10;;;5.63;;
20397;SDS011;10358;49.590;11.030;2024-02-21T05:55:12;15.33;;;5.00;;
20397;SDS011;10358;49.590;11.030;2024-02-21T05:57:37;14.00;;;5.30;;
20397;SDS011;10358;49.590;11.030;2024-02-21T06:00:04;18.03;;;5.03;;
20397;SDS011;10358;49.590;11.030;2024-02-21T06:02:30;18.47;;;4.83;;
20397;SDS011;10358;49.590;11.030;2024-02-21T06:04:56;22.30;;;5.27;;
20397;SDS011;10358;49.590;11.030;2024-02-21T06:07:22;16.40;;;5.13;;
20397;SDS011;10358;49.590;11.030;2024-02-21T06:09:47;17.40;;;4.67;;
20397;SDS011;10358;49.590;11.030;2024-02-21T06:12:13;19.47;;;5.10;;
20397;SDS011;10358;49.590;11.030;2024-02-21T06:14:38;18.77;;;4.83;;
20397;SDS011;10358;49.590;11.030;2024-02-21T06:17:04;14.00;;;4.50;;
20397;SDS011;10358;49.590;11.030;2024-02-21T06:19:29;16.60;;;5.23;;
20397;SDS011;10358;49.590;11.030;2024-02-21T06:21:55;18.97;;;4.93;;
20397;SDS011;10358;49.590;11.030;2024-02-21T06:24:20;17.03;;;5.10;;
20397;SDS011;10358;49.590;11.030;2024-02-21T06:26:46;14.00;;;5.20;;
20397;SDS011;10358;49.590;11.030;2024-02-21T06:29:12;21.70;;;4.87;;
20397;SDS011;10358;49.590;11.030;2024-02-21T06:31:38;13.00;;;4.67;;
20397;SDS011;10358;49.590;11.030;2024-02-21T06:34:05;21.07;;;5.70;;
20397;SDS011;10358;49.590;11.030;2024-02-21T06:36:30;20.23;;;5.37;;
20397;SDS011;10358;49.590;11.030;2024-02-21T06:38:56;20.83;;;5.63;;
20397;SDS011;10358;49.590;11.030;2024-02-21T06:41:22;15.87;;;5.20;;
20397;SDS011;10358;49.590;11.030;2024-02-21T06:43:48;12.93;;;5.20;;
20397;SDS011;10358;49.590;11.030;2024-02-21T06:46:31;18.00;;;5.30;;
20397;SDS011;10358;49.590;11.030;2024-02-21T06:48:58;21.53;;;5.77;;
20397;SDS011;10358;49.590;11.030;2024-02-21T06:51:27;12.27;;;4.63;;
20397;SDS011;10358;49.590;11.030;2024-02-21T06:53:53;15.67;;;4.87;;
20397;SDS011;10358;49.590;11.030;2024-02-21T06:56:19;21.40;;;5.40;;
20397;SDS011;10358;49.590;11.030;2024-02-21T06:58:45;19.57;;;4.47;;
20397;SDS011;10358;49.590;11.030;2024-02-21T07:01:11;17.40;;;5.77;;
20397;SDS011;10358;49.590;11.030;2024-02-21T07:03:36;19.13;;;5.50;;
20397;SDS011;10358;49.590;11.030;2024-02-21T07:06:03;19.70;;;5.37;;
20397;SDS011;10358;49.590;11.030;2024-02-21T07:08:29;13.23;;;4.73;;
20397;SDS011;10358;49.590;11.030;2024-02-21T07:10:54;13.93;;;5.37;;
20397;SDS011;10358;49.590;11.030;2024-02-21T07:13:20;16.03;;;5.63;;
20397;SDS011;10358;49.590;11.030;2024-02-21T07:15:47;17.83;;;5.40;;
20397;SDS011;10358;49.590;11.030;2024-02-21T07:18:13;18.57;;;5.50;;
20397;SDS011;10358;49.590;11.030;2024-02-21T07:20:39;19.20;;;5.83;;
20397;SDS011;10358;49.590;11.030;2024-02-21T07:23:06;16.87;;;5.87;;
20397;SDS011;10358;49.590;11.030;2024-02-21T07:25:32;21.23;;;5.97;;
20397;SDS011;10358;49.590;11.030;2024-02-21T07:27:57;25.37;;;5.97;;
20397;SDS011;10358;49.590;11.030;2024-02-21T07:30:23;15.47;;;5.40;;
20397;SDS011;10358;49.590;11.030;2024-02-21T07:32:49;18.40;;;5.70;;
20397;SDS011;10358;49.590;11.030;2024-02-21T07:35:17;17.57;;;5.60;;
20397;SDS011;10358;49.590;11.030;2024-02-21T07:37:43;16.63;;;5.10;;
20397;SDS011;10358;49.590;11.030;2024-02-21T07:40:15;12.70;;;5.30;;
20397;SDS011;10358;49.590;11.030;2024-02-21T07:42:41;13.80;;;4.80;;
20397;SDS011;10358;49.590;11.030;2024-02-21T07:45:08;15.27;;;4.57;;
20397;SDS011;10358;49.590;11.030;2024-02-21T07:47:34;14.77;;;4.50;;
20397;SDS011;10358;49.590;11.030;2024-02-21T07:50:00;12.77;;;4.70;;
20397;SDS011;10358;49.590;11.030;2024-02-21T07:52:26;14.17;;;4.07;;
20397;SDS011;10358;49.590;11.030;2024-02-21T07:54:51;13.83;;;4.03;;
20397;SDS011;10358;49.590;11.030;2024-02-21T07:57:17;17.80;;;4.87;;
20397;SDS011;10358;49.590;11.030;2024-02-21T07:59:43;14.53;;;4.70;;
20397;SDS011;10358;49.590;11.030;2024-02-21T08:02:08;18.60;;;4.57;;
20397;SDS011;10358;49.590;11.030;2024-02-21T08:04:34;13.87;;;4.00;;
20397;SDS011;10358;49.590;11.030;2024-02-21T08:07:00;14.80;;;4.13;;
20397;SDS011;10358;49.590;11.030;2024-02-21T08:09:29;17.90;;;4.23;;
20397;SDS011;10358;49.590;11.030;2024-02-21T08:11:55;17.63;;;4.40;;
20397;SDS011;10358;49.590;11.030;2024-02-21T08:14:21;16.27;;;4.23;;
20397;SDS011;10358;49.590;11.030;2024-02-21T08:16:47;17.87;;;4.30;;
20397;SDS011;10358;49.590;11.030;2024-02-21T08:19:13;14.13;;;4.20;;
20397;SDS011;10358;49.590;11.030;2024-02-21T08:21:40;13.83;;;3.87;;
20397;SDS011;10358;49.590;11.030;2024-02-21T08:24:05;15.27;;;3.90;;
20397;SDS011;10358;49.590;11.030;2024-02-21T08:26:31;14.37;;;3.70;;
20397;SDS011;10358;49.590;11.030;2024-02-21T08:28:57;13.50;;;3.40;;
20397;SDS011;10358;49.590;11.030;2024-02-21T08:31:26;12.83;;;3.40;;
20397;SDS011;10358;49.590;11.030;2024-02-21T08:33:59;14.03;;;3.57;;
20397;SDS011;10358;49.590;11.030;2024-02-21T08:36:32;12.03;;;3.27;;
20397;SDS011;10358;49.590;11.030;2024-02-21T08:38:59;11.23;;;3.30;;
20397;SDS011;10358;49.590;11.030;2024-02-21T08:41:25;11.83;;;3.53;;
20397;SDS011;10358;49.590;11.030;2024-02-21T08:43:52;11.63;;;3.17;;
20397;SDS011;10358;49.590;11.030;2024-02-21T08:46:18;12.17;;;3.00;;
20397;SDS011;10358;49.590;11.030;2024-02-21T08:48:45;10.97;;;3.07;;
20397;SDS011;10358;49.590;11.030;2024-02-21T08:51:11;13.33;;;3.37;;
20397;SDS011;10358;49.590;11.030;2024-02-21T08:53:37;13.57;;;2.93;;
20397;SDS011;10358;49.590;11.030;2024-02-21T08:56:03;10.87;;;2.83;;
20397;SDS011;10358;49.590;11.030;2024-02-21T08:58:29;17.20;;;3.23;;
20397;SDS011;10358;49.590;11.030;2024-02-21T09:00:54;11.87;;;3.13;;
20397;SDS011;10358;49.590;11.030;2024-02-21T09:03:20;15.10;;;3.17;;
20397;SDS011;10358;49.590;11.030;2024-02-21T09:05:46;12.70;;;3.20;;
20397;SDS011;10358;49.590;11.030;2024-02-21T09:08:12;15.73;;;3.07;;
20397;SDS011;10358;49.590;11.030;2024-02-21T09:10:38;12.20;;;2.87;;
20397;SDS011;10358;49.590;11.030;2024-02-21T09:13:04;11.50;;;3.07;;
20397;SDS011;10358;49.590;11.030;2024-02-21T09:15:31;15.43;;;3.43;;
20397;SDS011;10358;49.590;11.030;2024-02-21T09:17:57;15.43;;;2.87;;
20397;SDS011;10358;49.590;11.030;2024-02-21T09:20:22;10.13;;;2.77;;
20397;SDS011;10358;49.590;11.030;2024-02-21T09:22:48;10.90;;;3.03;;
20397;SDS011;10358;49.590;11.030;2024-02-21T09:25:14;13.53;;;3.10;;
20397;SDS011;10358;49.590;11.030;2024-02-21T09:27:40;11.63;;;2.80;;
20397;SDS011;10358;49.590;11.030;2024-02-21T09:30:07;12.33;;;3.03;;
20397;SDS011;10358;49.590;11.030;2024-02-21T09:32:32;14.40;;;2.90;;
20397;SDS011;10358;49.590;11.030;2024-02-21T09:34:58;16.57;;;3.20;;
20397;SDS011;10358;49.590;11.030;2024-02-21T09:37:24;12.53;;;2.80;;
20397;SDS011;10358;49.590;11.030;2024-02-21T09:39:49;9.70;;;2.50;;
20397;SDS011;10358;49.590;11.030;2024-02-21T09:42:18;12.23;;;3.00;;
20397;SDS011;10358;49.590;11.030;2024-02-21T09:44:45;9.80;;;2.90;;
20397;SDS011;10358;49.590;11.030;2024-02-21T09:47:19;13.37;;;2.70;;
20397;SDS011;10358;49.590;11.030;2024-02-21T09:49:49;14.00;;;2.60;;
20397;SDS011;10358;49.590;11.030;2024-02-21T09:52:16;18.47;;;3.00;;
20397;SDS011;10358;49.590;11.030;2024-02-21T09:54:45;13.77;;;3.00;;
20397;SDS011;10358;49.590;11.030;2024-02-21T09:57:12;9.77;;;2.63;;
20397;SDS011;10358;49.590;11.030;2024-02-21T09:59:38;10.57;;;2.83;;
20397;SDS011;10358;49.590;11.030;2024-02-21T10:02:06;10.13;;;2.73;;
20397;SDS011;10358;49.590;11.030;2024-02-21T10:04:32;12.90;;;2.57;;
20397;SDS011;10358;49.590;11.030;2024-02-21T10:06:57;10.10;;;2.00;;
20397;SDS011;10358;49.590;11.030;2024-02-21T10:09:32;13.67;;;2.73;;
20397;SDS011;10358;49.590;11.030;2024-02-21T10:12:11;12.10;;;2.80;;
20397;SDS011;10358;49.590;11.030;2024-02-21T10:14:38;10.03;;;2.43;;
20397;SDS011;10358;49.590;11.030;2024-02-21T10:17:03;15.63;;;2.60;;
20397;SDS011;10358;49.590;11.030;2024-02-21T10:19:34;12.10;;;2.93;;
20397;SDS011;10358;49.590;11.030;2024-02-21T10:24:30;11.03;;;2.90;;
20397;SDS011;10358;49.590;11.030;2024-02-21T10:27:03;13.23;;;2.50;;
20397;SDS011;10358;49.590;11.030;2024-02-21T10:29:33;12.57;;;2.63;;
20397;SDS011;10358;49.590;11.030;2024-02-21T10:34:32;14.07;;;2.53;;
20397;SDS011;10358;49.590;11.030;2024-02-21T10:37:15;15.53;;;2.73;;
20397;SDS011;10358;49.590;11.030;2024-02-21T10:39:41;12.67;;;2.53;;
20397;SDS011;10358;49.590;11.030;2024-02-21T10:42:07;12.63;;;2.90;;
20397;SDS011;10358;49.590;11.030;2024-02-21T10:44:39;10.30;;;2.87;;
20397;SDS011;10358;49.590;11.030;2024-02-21T10:47:08;9.50;;;2.50;;
20397;SDS011;10358;49.590;11.030;2024-02-21T10:49:38;10.83;;;2.73;;
20397;SDS011;10358;49.590;11.030;2024-02-21T10:52:21;13.27;;;2.60;;
20397;SDS011;10358;49.590;11.030;2024-02-21T10:55:10;11.50;;;2.77;;
20397;SDS011;10358;49.590;11.030;2024-02-21T10:57:41;12.37;;;2.60;;
20397;SDS011;10358;49.590;11.030;2024-02-21T11:00:08;9.90;;;2.53;;
20397;SDS011;10358;49.590;11.030;2024-02-21T11:02:37;12.77;;;2.47;;
20397;SDS011;10358;49.590;11.030;2024-02-21T11:05:04;8.90;;;2.53;;
20397;SDS011;10358;49.590;11.030;2024-02-21T11:07:33;12.07;;;2.57;;
20397;SDS011;10358;49.590;11.030;2024-02-21T11:10:02;9.07;;;2.20;;
20397;SDS011;10358;49.590;11.030;2024-02-21T11:12:28;9.70;;;2.67;;
20397;SDS011;10358;49.590;11.030;2024-02-21T11:15:07;10.77;;;2.80;;
20397;SDS011;10358;49.590;11.030;2024-02-21T11:17:32;9.73;;;2.55;;
20397;SDS011;10358;49.590;11.030;2024-02-21T11:19:58;7.77;;;2.33;;
20397;SDS011;10358;49.590;11.030;2024-02-21T11:22:40;11.13;;;2.08;;
20397;SDS011;10358;49.590;11.030;2024-02-21T11:25:09;6.87;;;2.17;;
20397;SDS011;10358;49.590;11.030;2024-02-21T11:27:36;8.90;;;2.20;;
20397;SDS011;10358;49.590;11.030;2024-02-21T11:30:03;9.43;;;2.67;;
20397;SDS011;10358;49.590;11.030;2024-02-21T11:32:30;6.63;;;2.53;;
20397;SDS011;10358;49.590;11.030;2024-02-21T11:35:00;7.50;;;2.42;;
20397;SDS011;10358;49.590;11.030;2024-02-21T11:37:28;8.32;;;2.00;;
20397;SDS011;10358;49.590;11.030;2024-02-21T11:39:55;4.95;;;1.92;;
20397;SDS011;10358;49.590;11.030;2024-02-21T11:42:21;7.10;;;2.25;;
20397;SDS011;10358;49.590;11.030;2024-02-21T11:44:47;6.05;;;2.08;;
20397;SDS011;10358;49.590;11.030;2024-02-21T11:47:13;10.65;;;2.10;;
20397;SDS011;10358;49.590;11.030;2024-02-21T11:49:43;10.48;;;2.80;;
20397;SDS011;10358;49.590;11.030;2024-02-21T11:52:14;9.23;;;2.67;;
20397;SDS011;10358;49.590;11.030;2024-02-21T11:54:43;10.48;;;2.22;;
20397;SDS011;10358;49.590;11.030;2024-02-21T11:57:09;7.10;;;1.93;;
20397;SDS011;10358;49.590;11.030;2024-02-21T11:59:39;10.93;;;2.20;;
20397;SDS011;10358;49.590;11.030;2024-02-21T12:02:05;9.05;;;2.28;;
20397;SDS011;10358;49.590;11.030;2024-02-21T12:04:32;10.35;;;2.72;;
20397;SDS011;10358;49.590;11.030;2024-02-21T12:06:58;6.93;;;2.13;;
20397;SDS011;10358;49.590;11.030;2024-02-21T12:09:24;13.07;;;2.58;;
20397;SDS011;10358;49.590;11.030;2024-02-21T12:12:00;8.23;;;1.90;;
20397;SDS011;10358;49.590;11.030;2024-02-21T12:14:32;8.13;;;2.20;;
20397;SDS011;10358;49.590;11.030;2024-02-21T12:16:59;9.55;;;2.00;;
20397;SDS011;10358;49.590;11.030;2024-02-21T12:19:26;4.57;;;1.70;;
20397;SDS011;10358;49.590;11.030;2024-02-21T12:21:53;9.00;;;2.60;;
20397;SDS011;10358;49.590;11.030;2024-02-21T12:24:23;11.43;;;2.33;;
20397;SDS011;10358;49.590;11.030;2024-02-21T12:26:50;7.80;;;1.95;;
20397;SDS011;10358;49.590;11.030;2024-02-21T12:29:20;6.10;;;1.80;;
20397;SDS011;10358;49.590;11.030;2024-02-21T12:31:46;7.25;;;2.10;;
20397;SDS011;10358;49.590;11.030;2024-02-21T12:34:12;7.10;;;1.88;;
20397;SDS011;10358;49.590;11.030;2024-02-21T12:36:41;8.85;;;2.20;;
20397;SDS011;10358;49.590;11.030;2024-02-21T12:39:08;7.55;;;1.90;;
20397;SDS011;10358;49.590;11.030;2024-02-21T12:41:35;6.93;;;1.90;;
20397;SDS011;10358;49.590;11.030;2024-02-21T12:44:03;5.40;;;1.63;;
20397;SDS011;10358;49.590;11.030;2024-02-21T12:46:32;9.65;;;2.15;;
20397;SDS011;10358;49.590;11.030;2024-02-21T12:48:58;8.73;;;1.90;;
20397;SDS011;10358;49.590;11.030;2024-02-21T12:51:24;9.60;;;2.45;;
20397;SDS011;10358;49.590;11.030;2024-02-21T12:53:49;7.70;;;2.00;;
20397;SDS011;10358;49.590;11.030;2024-02-21T12:56:15;6.93;;;1.80;;
20397;SDS011;10358;49.590;11.030;2024-02-21T12:58:41;6.95;;;1.70;;
20397;SDS011;10358;49.590;11.030;2024-02-21T13:01:07;7.40;;;1.80;;
20397;SDS011;10358;49.590;11.030;2024-02-21T13:03:33;7.63;;;1.65;;
20397;SDS011;10358;49.590;11.030;2024-02-21T13:05:58;9.88;;;2.08;;
20397;SDS011;10358;49.590;11.030;2024-02-21T13:08:24;5.60;;;1.65;;
20397;SDS011;10358;49.590;11.030;2024-02-21T13:10:50;6.53;;;1.92;;
20397;SDS011;10358;49.590;11.030;2024-02-21T13:13:15;5.80;;;1.67;;
20397;SDS011;10358;49.590;11.030;2024-02-21T13:15:41;6.00;;;1.80;;
20397;SDS011;10358;49.590;11.030;2024-02-21T13:18:09;7.68;;;2.53;;
20397;SDS011;10358;49.590;11.030;2024-02-21T13:20:36;5.55;;;1.70;;
20397;SDS011;10358;49.590;11.030;2024-02-21T13:23:02;7.18;;;1.70;;
20397;SDS011;10358;49.590;11.030;2024-02-21T13:25:28;5.40;;;1.80;;
20397;SDS011;10358;49.590;11.030;2024-02-21T13:27:54;10.02;;;2.15;;
20397;SDS011;10358;49.590;11.030;2024-02-21T13:30:20;7.88;;;1.80;;
20397;SDS011;10358;49.590;11.030;2024-02-21T13:32:45;5.18;;;1.70;;
20397;SDS011;10358;49.590;11.030;2024-02-21T13:35:11;7.28;;;1.85;;
20397;SDS011;10358;49.590;11.030;2024-02-21T13:37:37;9.32;;;2.20;;
20397;SDS011;10358;49.590;11.030;2024-02-21T13:40:04;6.70;;;1.80;;
20397;SDS011;10358;49.590;11.030;2024-02-21T13:42:30;5.70;;;1.52;;
20397;SDS011;10358;49.590;11.030;2024-02-21T13:44:55;7.32;;;1.83;;
20397;SDS011;10358;49.590;11.030;2024-02-21T13:47:21;5.88;;;1.73;;
20397;SDS011;10358;49.590;11.030;2024-02-21T13:49:47;6.30;;;1.60;;
20397;SDS011;10358;49.590;11.030;2024-02-21T13:52:14;7.65;;;1.65;;
20397;SDS011;10358;49.590;11.030;2024-02-21T13:54:40;6.38;;;1.67;;
20397;SDS011;10358;49.590;11.030;2024-02-21T13:57:07;4.85;;;1.75;;
20397;SDS011;10358;49.590;11.030;2024-02-21T13:59:32;8.85;;;1.55;;
20397;SDS011;10358;49.590;11.030;2024-02-21T14:01:59;8.93;;;1.90;;
20397;SDS011;10358;49.590;11.030;2024-02-21T14:04:25;5.47;;;1.92;;
20397;SDS011;10358;49.590;11.030;2024-02-21T14:06:50;6.25;;;1.67;;
20397;SDS011;10358;49.590;11.030;2024-02-21T14:09:17;5.82;;;1.65;;
20397;SDS011;10358;49.590;11.030;2024-02-21T14:11:44;5.18;;;1.50;;
20397;SDS011;10358;49.590;11.030;2024-02-21T14:14:10;5.57;;;1.60;;
20397;SDS011;10358;49.590;11.030;2024-02-21T14:16:35;7.88;;;1.80;;
20397;SDS011;10358;49.590;11.030;2024-02-21T14:19:01;5.07;;;1.50;;
20397;SDS011;10358;49.590;11.030;2024-02-21T14:21:28;4.68;;;1.52;;
20397;SDS011;10358;49.590;11.030;2024-02-21T14:23:55;7.50;;;1.98;;
20397;SDS011;10358;49.590;11.030;2024-02-21T14:26:21;4.75;;;1.40;;